createdAt,value
2022-12-26T00:00:41.833Z,18.40
2022-12-26T00:03:09.117Z,20.47
2022-12-26T00:05:39.638Z,19.63
2022-12-26T00:08:08.309Z,20.27
2022-12-26T00:10:35.733Z,18.70
2022-12-26T00:13:39.836Z,17.93
2022-12-26T00:15:50.687Z,18.77
2022-12-26T00:18:18.234Z,18.97
2022-12-26T00:20:45.979Z,18.07
2022-12-26T00:23:13.754Z,19.83
2022-12-26T00:25:41.208Z,19.37
2022-12-26T00:28:08.658Z,17.90
2022-12-26T00:30:38.427Z,18.63
2022-12-26T00:33:05.588Z,17.63
2022-12-26T00:35:32.714Z,18.83
2022-12-26T00:38:00.184Z,18.40
2022-12-26T00:40:27.670Z,17.53
2022-12-26T00:42:55.107Z,18.70
2022-12-26T00:45:22.602Z,18.60
2022-12-26T00:47:50.038Z,18.67
2022-12-26T00:50:17.555Z,18.87
2022-12-26T00:52:45.015Z,17.67
2022-12-26T00:55:12.145Z,18.73
2022-12-26T00:57:39.573Z,17.53
2022-12-26T01:00:07.679Z,18.70
2022-12-26T01:02:38.684Z,18.47
2022-12-26T01:05:08.616Z,18.83
2022-12-26T01:08:22.020Z,19.07
2022-12-26T01:10:24.660Z,18.57
2022-12-26T01:12:52.508Z,17.50
2022-12-26T01:15:20.571Z,19.03
2022-12-26T01:17:48.029Z,19.43
2022-12-26T01:20:15.729Z,18.37
2022-12-26T01:22:43.168Z,19.23
2022-12-26T01:25:12.109Z,19.00
2022-12-26T01:27:39.559Z,17.97
2022-12-26T01:30:07.604Z,18.30
2022-12-26T01:32:35.039Z,18.13
2022-12-26T01:35:02.506Z,18.67
2022-12-26T01:37:29.944Z,20.23
2022-12-26T01:39:57.442Z,19.50
2022-12-26T01:42:25.755Z,20.63
2022-12-26T01:45:16.182Z,19.63
2022-12-26T01:48:02.177Z,21.47
2022-12-26T01:50:52.824Z,22.17
2022-12-26T01:53:28.268Z,20.43
2022-12-26T01:56:00.654Z,21.47
2022-12-26T01:58:32.648Z,19.87
2022-12-26T02:01:00.416Z,19.80
2022-12-26T02:03:46.501Z,20.00
2022-12-26T02:06:15.324Z,18.47
2022-12-26T02:08:43.656Z,20.37
2022-12-26T02:11:19.217Z,20.90
2022-12-26T02:13:46.703Z,21.60
2022-12-26T02:16:15.107Z,21.20
2022-12-26T02:18:42.879Z,21.73
2022-12-26T02:21:39.864Z,21.20
2022-12-26T02:24:27.957Z,21.97
2022-12-26T02:27:13.983Z,21.13
2022-12-26T02:30:10.528Z,21.37
2022-12-26T02:33:07.087Z,19.10
2022-12-26T02:35:52.731Z,20.73
2022-12-26T02:38:49.688Z,21.40
2022-12-26T02:41:36.407Z,21.13
2022-12-26T02:44:42.717Z,20.27
2022-12-26T02:47:21.341Z,19.73
2022-12-26T02:50:31.369Z,20.50
2022-12-26T02:53:40.406Z,20.03
2022-12-26T02:56:33.432Z,18.67
2022-12-26T02:59:55.738Z,20.03
2022-12-26T03:02:49.652Z,18.67
2022-12-26T03:06:04.835Z,19.43
2022-12-26T03:08:52.713Z,19.93
2022-12-26T03:11:38.989Z,20.63
2022-12-26T03:14:12.602Z,19.87
2022-12-26T03:17:00.585Z,21.30
2022-12-26T03:19:29.496Z,19.13
2022-12-26T03:21:57.864Z,20.87
2022-12-26T03:24:46.363Z,22.10
2022-12-26T03:27:13.855Z,20.43
2022-12-26T03:30:00.078Z,21.67
2022-12-26T03:32:27.537Z,20.77
2022-12-26T03:34:55.040Z,22.13
2022-12-26T03:37:49.234Z,21.03
2022-12-26T03:41:02.184Z,21.77
2022-12-26T03:43:54.901Z,20.50
2022-12-26T03:47:09.691Z,22.07
2022-12-26T03:50:05.880Z,19.87
2022-12-26T03:53:23.591Z,21.63
2022-12-26T03:56:31.865Z,21.07
2022-12-26T03:59:27.434Z,18.83
2022-12-26T04:02:14.885Z,19.63
2022-12-26T04:05:02.852Z,18.70
2022-12-26T04:07:56.293Z,17.97
2022-12-26T04:10:55.958Z,18.07
2022-12-26T04:13:44.427Z,17.43
2022-12-26T04:16:51.477Z,16.87
2022-12-26T04:19:42.593Z,17.07
2022-12-26T04:22:54.825Z,15.77
2022-12-26T04:25:48.663Z,15.53
2022-12-26T04:28:38.433Z,16.57
2022-12-26T04:31:36.946Z,15.50
2022-12-26T04:34:26.113Z,14.93
2022-12-26T04:37:16.298Z,15.37
2022-12-26T04:40:05.575Z,13.97
2022-12-26T04:42:52.704Z,14.77
2022-12-26T04:45:21.405Z,13.80
2022-12-26T04:48:09.187Z,14.37
2022-12-26T04:50:36.740Z,16.77
2022-12-26T04:53:04.199Z,13.77
2022-12-26T04:55:32.956Z,14.50
2022-12-26T04:58:00.756Z,13.53
2022-12-26T05:00:29.377Z,15.27
2022-12-26T05:03:19.216Z,13.50
2022-12-26T05:06:14.447Z,14.57
2022-12-26T05:09:01.631Z,14.83
2022-12-26T05:11:29.943Z,14.37
2022-12-26T05:13:58.016Z,14.07
2022-12-26T05:16:44.816Z,13.83
2022-12-26T05:19:35.229Z,14.00
2022-12-26T05:22:21.934Z,12.70
2022-12-26T05:25:08.084Z,14.07
2022-12-26T05:27:58.852Z,11.67
2022-12-26T05:30:26.789Z,14.33
2022-12-26T05:33:12.688Z,13.00
2022-12-26T05:35:40.517Z,12.93
2022-12-26T05:38:09.627Z,13.27
2022-12-26T05:40:37.404Z,13.37
2022-12-26T05:43:04.837Z,13.47
2022-12-26T05:45:32.845Z,13.23
2022-12-26T05:48:00.691Z,12.63
2022-12-26T05:50:28.717Z,13.17
2022-12-26T05:52:59.586Z,12.53
2022-12-26T05:55:26.741Z,13.40
2022-12-26T05:57:53.815Z,12.60
2022-12-26T06:00:21.153Z,14.03
2022-12-26T06:02:49.039Z,13.57
2022-12-26T06:05:16.613Z,13.27
2022-12-26T06:07:44.457Z,13.00
2022-12-26T06:10:11.654Z,13.53
2022-12-26T06:12:46.913Z,12.47
2022-12-26T06:15:14.038Z,12.63
2022-12-26T06:17:41.103Z,12.33
2022-12-26T06:20:09.059Z,12.40
2022-12-26T06:22:36.489Z,12.23
2022-12-26T06:25:03.770Z,11.70
2022-12-26T06:27:30.842Z,13.20
2022-12-26T06:29:57.961Z,13.80
2022-12-26T06:32:25.417Z,12.63
2022-12-26T06:34:52.860Z,13.10
2022-12-26T06:37:20.326Z,12.70
2022-12-26T06:39:47.772Z,12.47
2022-12-26T06:42:15.211Z,12.00
2022-12-26T06:44:42.688Z,11.80
2022-12-26T06:47:10.146Z,11.97
2022-12-26T06:49:37.667Z,10.70
2022-12-26T06:52:05.209Z,10.67
2022-12-26T06:54:32.670Z,12.20
2022-12-26T06:57:00.131Z,10.03
2022-12-26T06:59:27.661Z,11.07
2022-12-26T07:01:55.198Z,10.90
2022-12-26T07:04:22.432Z,10.90
2022-12-26T07:06:49.874Z,10.53
2022-12-26T07:09:18.959Z,9.30
2022-12-26T07:11:49.383Z,9.50
2022-12-26T07:14:17.110Z,10.03
2022-12-26T07:16:45.495Z,9.43
2022-12-26T07:19:13.721Z,8.47
2022-12-26T07:21:41.463Z,8.73
2022-12-26T07:24:15.186Z,8.77
2022-12-26T07:26:42.582Z,8.07
2022-12-26T07:29:11.974Z,8.40
2022-12-26T07:31:39.642Z,8.60
2022-12-26T07:34:07.169Z,7.83
2022-12-26T07:36:34.628Z,8.20
2022-12-26T07:39:01.741Z,8.63
2022-12-26T07:41:48.592Z,8.77
2022-12-26T07:44:26.152Z,9.10
2022-12-26T07:46:53.317Z,8.20
2022-12-26T07:49:20.476Z,7.63
2022-12-26T07:51:47.598Z,7.27
2022-12-26T07:54:15.599Z,7.83
2022-12-26T07:56:43.021Z,7.53
2022-12-26T07:59:15.582Z,7.87
2022-12-26T08:01:43.572Z,8.10
2022-12-26T08:04:11.703Z,8.47
2022-12-26T08:06:39.041Z,8.67
2022-12-26T08:09:06.593Z,9.00
2022-12-26T08:11:35.238Z,8.00
2022-12-26T08:14:02.445Z,7.57
2022-12-26T08:16:31.417Z,7.10
2022-12-26T08:18:58.607Z,7.40
2022-12-26T08:21:25.793Z,7.13
2022-12-26T08:23:53.196Z,7.50
2022-12-26T08:26:23.450Z,7.47
2022-12-26T08:28:51.650Z,6.90
2022-12-26T08:31:19.903Z,7.50
2022-12-26T08:33:47.497Z,7.17
2022-12-26T08:36:17.266Z,7.10
2022-12-26T08:38:45.901Z,6.33
2022-12-26T08:41:13.363Z,7.43
2022-12-26T08:46:28.567Z,6.33
2022-12-26T08:48:56.029Z,6.40
2022-12-26T08:51:25.386Z,7.00
2022-12-26T08:53:54.837Z,6.43
2022-12-26T08:56:25.638Z,6.40
2022-12-26T08:58:53.594Z,6.70
2022-12-26T09:01:29.496Z,6.67
2022-12-26T09:04:02.154Z,6.50
2022-12-26T09:06:32.005Z,6.40
2022-12-26T09:09:00.250Z,6.60
2022-12-26T09:11:27.740Z,6.17
2022-12-26T09:13:56.217Z,6.90
2022-12-26T09:16:25.207Z,6.67
2022-12-26T09:18:57.168Z,6.20
2022-12-26T09:21:25.282Z,5.90
2022-12-26T09:24:01.042Z,6.37
2022-12-26T09:26:28.928Z,6.23
2022-12-26T09:28:56.615Z,6.40
2022-12-26T09:31:26.430Z,6.20
2022-12-26T09:33:53.879Z,6.33
2022-12-26T09:36:23.979Z,6.63
2022-12-26T09:38:52.082Z,6.00
2022-12-26T09:41:48.677Z,6.23
2022-12-26T09:44:34.741Z,6.10
2022-12-26T09:47:20.775Z,5.90
2022-12-26T09:50:06.904Z,5.57
2022-12-26T09:52:54.580Z,5.33
2022-12-26T09:55:45.078Z,5.20
2022-12-26T09:58:16.442Z,5.50
2022-12-26T10:00:46.721Z,6.57
2022-12-26T10:03:14.531Z,5.53
2022-12-26T10:05:47.353Z,6.07
2022-12-26T10:08:24.390Z,5.30
2022-12-26T10:11:01.576Z,5.60
2022-12-26T10:13:49.395Z,5.50
2022-12-26T10:16:21.168Z,5.90
2022-12-26T10:19:03.901Z,6.10
2022-12-26T10:21:51.627Z,6.37
2022-12-26T10:24:23.604Z,5.50
2022-12-26T10:27:11.279Z,5.77
2022-12-26T10:29:40.286Z,5.80
2022-12-26T10:32:11.781Z,5.10
2022-12-26T10:34:46.939Z,5.10
2022-12-26T10:37:37.811Z,5.60
2022-12-26T10:40:27.153Z,4.80
2022-12-26T10:42:58.175Z,4.80
2022-12-26T10:45:43.682Z,3.70
2022-12-26T10:48:13.708Z,3.97
2022-12-26T10:50:44.579Z,3.93
2022-12-26T10:53:13.804Z,3.00
2022-12-26T10:55:40.941Z,2.33
2022-12-26T10:58:29.970Z,2.57
2022-12-26T11:00:57.204Z,2.50
2022-12-26T11:03:24.425Z,2.80
2022-12-26T11:06:10.371Z,2.17
2022-12-26T11:08:43.808Z,2.27
2022-12-26T11:11:46.511Z,2.10
2022-12-26T11:14:33.860Z,2.10
2022-12-26T11:17:13.240Z,1.90
2022-12-26T11:19:44.885Z,2.20
2022-12-26T11:22:30.524Z,1.50
2022-12-26T11:25:20.119Z,1.77
2022-12-26T11:27:53.756Z,1.70
2022-12-26T11:30:34.605Z,1.90
2022-12-26T11:33:14.768Z,1.70
2022-12-26T11:35:47.931Z,1.73
2022-12-26T11:38:39.069Z,1.90
2022-12-26T11:41:33.428Z,1.53
2022-12-26T11:44:16.504Z,1.80
2022-12-26T11:47:07.672Z,1.60
2022-12-26T11:50:04.772Z,1.60
2022-12-26T11:52:57.017Z,1.67
2022-12-26T11:55:30.971Z,1.80
2022-12-26T11:58:29.550Z,1.43
2022-12-26T12:01:15.947Z,1.40
2022-12-26T12:03:50.091Z,1.80
2022-12-26T12:06:44.105Z,1.60
2022-12-26T12:09:37.885Z,1.90
2022-12-26T12:12:33.008Z,1.37
2022-12-26T12:15:13.355Z,1.80
2022-12-26T12:18:05.325Z,1.60
2022-12-26T12:21:14.863Z,1.53
2022-12-26T12:24:16.555Z,1.80
2022-12-26T12:27:07.430Z,1.50
2022-12-26T12:30:14.831Z,1.33
2022-12-26T12:33:24.748Z,1.47
2022-12-26T12:36:19.802Z,1.17
2022-12-26T12:39:07.486Z,1.30
2022-12-26T12:42:06.097Z,1.50
2022-12-26T12:45:20.445Z,1.30
2022-12-26T12:48:20.675Z,1.30
2022-12-26T12:51:30.706Z,0.93
2022-12-26T12:54:33.252Z,1.10
2022-12-26T12:57:40.210Z,1.10
2022-12-26T13:00:19.788Z,0.80
2022-12-26T13:03:06.431Z,0.80
2022-12-26T13:05:49.684Z,1.00
2022-12-26T13:08:25.543Z,1.10
2022-12-26T13:11:01.626Z,0.80
2022-12-26T13:13:53.318Z,0.80
2022-12-26T13:16:25.998Z,0.80
2022-12-26T13:19:03.216Z,1.10
2022-12-26T13:21:36.087Z,0.93
2022-12-26T13:24:26.211Z,0.80
2022-12-26T13:27:22.763Z,0.90
2022-12-26T13:29:50.579Z,0.87
2022-12-26T13:32:30.798Z,0.90
2022-12-26T13:35:00.220Z,0.60
2022-12-26T13:37:55.646Z,0.70
2022-12-26T13:40:30.081Z,0.70
2022-12-26T13:43:41.363Z,0.87
2022-12-26T13:46:58.789Z,0.80
2022-12-26T13:49:40.183Z,0.73
2022-12-26T13:52:35.051Z,1.00
2022-12-26T13:55:41.147Z,0.80
2022-12-26T13:59:00.516Z,0.80
2022-12-26T14:42:45.066Z,0.60
2022-12-26T15:15:51.735Z,1.00
2022-12-26T15:18:52.734Z,5.27
2022-12-26T15:21:49.306Z,1.00
2022-12-26T15:25:18.716Z,1.20
2022-12-26T15:28:38.445Z,0.90
2022-12-26T15:32:04.411Z,4.93
2022-12-26T15:35:01.724Z,0.77
2022-12-26T16:04:27.992Z,6.67
2022-12-26T16:13:31.840Z,2.67
2022-12-26T16:16:00.681Z,2.53
2022-12-26T16:18:33.110Z,2.33
2022-12-26T16:21:22.170Z,2.70
2022-12-26T16:23:51.374Z,4.47
2022-12-26T16:26:30.236Z,2.20
2022-12-26T16:29:00.333Z,3.07
2022-12-26T16:31:31.266Z,2.93
2022-12-26T16:33:59.900Z,2.17
2022-12-26T16:36:30.315Z,2.10
2022-12-26T16:38:57.452Z,2.07
2022-12-26T16:41:30.086Z,2.33
2022-12-26T16:44:30.506Z,3.73
2022-12-26T16:47:05.669Z,13.93
2022-12-26T16:49:33.565Z,3.00
2022-12-26T16:52:00.945Z,4.93
2022-12-26T16:54:38.687Z,3.50
2022-12-26T16:57:23.572Z,4.03
2022-12-26T16:59:54.721Z,3.30
2022-12-26T17:02:34.911Z,3.53
2022-12-26T17:05:16.097Z,4.60
2022-12-26T17:07:45.763Z,4.37
2022-12-26T17:10:28.395Z,4.40
2022-12-26T17:12:59.627Z,4.47
2022-12-26T17:15:30.908Z,5.10
2022-12-26T17:18:00.027Z,4.93
2022-12-26T17:20:35.146Z,4.53
2022-12-26T17:23:39.873Z,4.37
2022-12-26T17:26:26.207Z,4.23
2022-12-26T17:28:53.532Z,4.23
2022-12-26T17:31:42.019Z,3.80
2022-12-26T17:34:25.761Z,3.87
2022-12-26T17:37:18.473Z,3.20
2022-12-26T17:39:41.730Z,2.87
2022-12-26T17:42:08.863Z,3.10
2022-12-26T17:44:41.154Z,3.37
2022-12-26T17:47:34.617Z,3.00
2022-12-26T17:50:01.685Z,2.90
2022-12-26T17:52:29.964Z,2.90
2022-12-26T17:54:58.664Z,3.00
2022-12-26T17:57:28.771Z,2.90
2022-12-26T17:59:56.762Z,2.63
2022-12-26T18:02:24.529Z,3.03
2022-12-26T18:04:52.144Z,2.60
2022-12-26T18:07:30.920Z,2.57
2022-12-26T18:10:00.158Z,2.30
2022-12-26T18:12:27.742Z,2.37
2022-12-26T18:15:01.389Z,2.13
2022-12-26T18:17:32.668Z,2.17
2022-12-26T18:20:00.597Z,2.70
2022-12-26T18:22:27.766Z,2.53
2022-12-26T18:24:54.938Z,2.33
2022-12-26T18:27:25.895Z,2.10
2022-12-26T18:29:53.356Z,2.50
2022-12-26T18:32:38.696Z,2.40
2022-12-26T18:35:06.489Z,2.50
2022-12-26T18:37:33.608Z,2.27
2022-12-26T18:40:01.086Z,2.17
2022-12-26T18:42:28.388Z,1.67
2022-12-26T18:44:55.524Z,2.63
2022-12-26T18:47:23.430Z,1.90
2022-12-26T18:49:50.654Z,2.07
2022-12-26T18:52:18.310Z,1.77
2022-12-26T18:54:45.844Z,1.20
2022-12-26T18:57:18.419Z,1.50
2022-12-26T18:59:46.262Z,1.80
2022-12-26T19:02:18.658Z,1.50
2022-12-26T19:04:48.672Z,1.47
2022-12-26T19:07:17.235Z,1.40
2022-12-26T19:09:45.439Z,1.37
2022-12-26T19:12:12.894Z,1.50
2022-12-26T19:14:40.436Z,1.40
2022-12-26T19:17:07.611Z,1.50
2022-12-26T19:19:34.707Z,1.40
2022-12-26T19:22:01.867Z,1.27
2022-12-26T19:24:28.967Z,1.20
2022-12-26T19:26:56.040Z,1.07
2022-12-26T19:29:23.424Z,1.03
2022-12-26T19:31:50.594Z,0.83
2022-12-26T19:34:18.249Z,0.83
2022-12-26T19:36:45.792Z,0.93
2022-12-26T19:39:12.908Z,1.20
2022-12-26T19:41:40.088Z,0.90
2022-12-26T19:44:07.222Z,1.07
2022-12-26T19:46:34.702Z,1.40
2022-12-26T19:49:01.831Z,1.20
2022-12-26T19:51:28.983Z,1.20
2022-12-26T19:53:56.433Z,0.97
2022-12-26T19:56:25.578Z,1.30
2022-12-26T19:58:56.744Z,1.00
2022-12-26T20:01:30.433Z,1.00
2022-12-26T20:04:00.301Z,0.93
2022-12-26T20:06:29.121Z,1.27
2022-12-26T20:08:58.702Z,1.10
2022-12-26T20:11:30.043Z,1.20
2022-12-26T20:13:57.522Z,1.80
2022-12-26T20:19:13.489Z,1.10
2022-12-26T20:21:40.702Z,1.10
2022-12-26T20:24:08.401Z,0.60
2022-12-26T20:26:35.466Z,0.90
2022-12-26T20:29:02.604Z,1.20
2022-12-26T20:31:31.207Z,0.70
2022-12-26T20:33:59.243Z,0.60
2022-12-26T20:36:28.128Z,0.60
2022-12-26T20:38:56.773Z,0.50
2022-12-26T20:41:24.982Z,0.40
2022-12-26T20:43:52.827Z,0.50
2022-12-26T20:46:24.411Z,0.60
2022-12-26T20:48:51.863Z,0.50
2022-12-26T20:51:20.851Z,0.30
2022-12-26T20:53:47.949Z,0.60
2022-12-26T20:56:15.162Z,0.40
2022-12-26T20:58:42.778Z,0.50
2022-12-26T21:01:15.890Z,0.50
2022-12-26T21:03:43.534Z,0.40
2022-12-26T21:06:19.367Z,0.50
2022-12-26T21:08:47.624Z,0.40
2022-12-26T21:11:19.586Z,0.50
2022-12-26T21:13:48.243Z,0.40
2022-12-26T21:16:20.062Z,0.60
2022-12-26T21:18:48.331Z,0.50
2022-12-26T21:21:21.290Z,0.60
2022-12-26T21:23:49.341Z,0.50
2022-12-26T21:26:16.715Z,0.50
2022-12-26T21:28:44.211Z,0.70
2022-12-26T21:31:11.918Z,0.60
2022-12-26T21:33:44.476Z,0.90
2022-12-26T21:36:13.307Z,0.70
2022-12-26T21:38:40.405Z,0.60
2022-12-26T21:41:11.942Z,0.60
2022-12-26T21:43:39.405Z,0.83
2022-12-26T21:46:13.512Z,0.50
2022-12-26T21:48:47.487Z,0.70
2022-12-26T21:51:15.925Z,1.07
2022-12-26T21:53:43.531Z,0.53
2022-12-26T21:56:12.732Z,0.70
2022-12-26T21:58:58.712Z,0.67
2022-12-26T22:01:28.024Z,0.70
2022-12-26T22:04:14.300Z,0.73
2022-12-26T22:06:42.370Z,0.60
2022-12-26T22:09:10.293Z,0.60
2022-12-26T22:11:56.957Z,0.80
2022-12-26T22:14:24.770Z,0.53
2022-12-26T22:16:52.983Z,0.70
2022-12-26T22:19:20.519Z,0.60
2022-12-26T22:21:47.923Z,0.73
2022-12-26T22:24:15.066Z,0.80
2022-12-26T22:26:42.422Z,0.87
2022-12-26T22:29:09.686Z,0.80
2022-12-26T22:31:37.949Z,0.90
2022-12-26T22:34:14.853Z,0.93
2022-12-26T22:36:42.827Z,0.70
2022-12-26T22:39:16.331Z,1.03
2022-12-26T22:41:45.775Z,0.63
2022-12-26T22:44:15.817Z,0.97
2022-12-26T22:46:43.284Z,0.90
2022-12-26T22:49:10.600Z,0.90
2022-12-26T22:51:38.019Z,1.03
2022-12-26T22:54:05.527Z,0.83
2022-12-26T22:56:34.060Z,0.90
2022-12-26T22:59:03.052Z,1.07
2022-12-26T23:01:30.789Z,0.80
2022-12-26T23:03:59.768Z,0.70
2022-12-26T23:06:29.857Z,0.70
2022-12-26T23:08:59.528Z,0.70
2022-12-26T23:11:34.424Z,0.97
2022-12-26T23:14:04.897Z,0.70
2022-12-26T23:16:50.613Z,0.60
2022-12-26T23:20:03.346Z,0.80
2022-12-26T23:22:31.025Z,0.60
2022-12-26T23:24:58.447Z,1.10
2022-12-26T23:27:44.532Z,1.07
2022-12-26T23:30:19.203Z,1.27
2022-12-26T23:32:50.987Z,0.93
2022-12-26T23:35:19.000Z,1.03
2022-12-26T23:37:46.464Z,0.80
2022-12-26T23:40:14.696Z,0.80
2022-12-26T23:42:42.196Z,0.60
2022-12-26T23:45:10.768Z,0.87
2022-12-26T23:47:38.721Z,1.20
2022-12-26T23:50:07.702Z,0.80
2022-12-26T23:52:35.569Z,1.33
2022-12-26T23:55:03.187Z,0.60
2022-12-26T23:57:30.270Z,0.53
2022-12-26T23:59:57.423Z,1.00
